Latest Weather Observations for Holmes Reef

IDQ60801

Issued at 1:05 pm EST Saturday 25 October 2014 (issued every 30 minutes, with the page automatically refreshed every 10 minutes)

About weather observations | Map of weather stations | Latest weather observations for QLD | Other Formats
Station Details ID: 200732 Name: HOLMES REEF Lat: -16.47 Lon: 147.87 Height: 1.9 m
Data from the previous 72 hours. | See also: Recent months at Holmes Reef
Date/Time
EST
Temp
°C
App
Temp
°C
Dew
Point
Rel
Hum
%
Delta-T
°C
Wind Press
QNH
hPa
Press
MSL
hPa
Rain
since 9 am
mm
Dir
 
Spd
km/h
Gust
km/h
Spd
kts
Gust
kts
25/01:00pm 25.0 - - - - ESE 32 37 17 20 1015.9 - -
25/12:30pm 24.9 - - - - SE 30 35 16 19 1016.2 - -
25/12:15pm 24.7 - - - - SE 32 - 17 - - 1016.0 -
25/12:00pm 24.7 - - - - ESE 35 39 19 21 1016.6 - -
25/11:30am 24.8 - - - - SE 33 41 18 22 1017.0 - -
25/11:15am 24.5 - - - - ESE 41 - 22 - - 1016.8 -
25/11:00am 24.7 - - - - SE 33 39 18 21 1017.4 - -
25/10:30am 25.0 - - - - ESE 33 39 18 21 1017.5 - -
25/10:15am 24.9 - - - - ESE 33 - 18 - - 1017.3 -
25/10:00am 25.0 - - - - ESE 35 41 19 22 1017.7 - -
25/09:30am 24.8 - - - - SE 35 43 19 23 1018.0 - -
25/09:15am 25.0 - - - - ESE 35 - 19 - - 1017.8 -
25/09:00am 24.9 - - - - ESE 35 43 19 23 1018.0 - -
25/08:30am 24.9 - - - - SE 33 39 18 21 1018.1 - -
25/08:15am 24.9 - - - - ESE 30 - 16 - - 1017.7 -
25/08:00am 25.0 - - - - ESE 32 37 17 20 1018.0 - -
25/07:30am 24.9 - - - - ESE 30 35 16 19 1017.7 - -
25/07:15am 25.0 - - - - ESE 35 - 19 - - 1017.2 -
25/07:00am 25.1 - - - - ESE 37 44 20 24 1017.4 - -
25/06:30am 24.4 - - - - E 35 43 19 23 1017.2 - -
25/06:15am 24.8 - - - - ESE 33 - 18 - - 1016.6 -
25/06:00am 24.9 - - - - ESE 33 41 18 22 1016.7 - -
25/05:30am 24.6 - - - - ESE 39 46 21 25 1016.4 - -
25/05:15am 24.5 - - - - ESE 37 - 20 - - 1016.1 -
25/05:00am 24.4 - - - - SE 39 46 21 25 1016.3 - -
25/04:30am 24.5 - - - - SE 39 46 21 25 1016.0 - -
25/04:15am 24.6 - - - - SE 43 - 23 - - 1015.6 -
25/04:00am 24.5 - - - - SE 43 50 23 27 1015.7 - -
25/03:30am 24.7 - - - - ESE 39 46 21 25 1015.7 - -
25/03:15am 24.7 - - - - ESE 37 - 20 - - 1015.4 -
25/03:00am 24.6 - - - - ESE 33 41 18 22 1015.6 - -
25/02:30am 24.5 - - - - ESE 41 50 22 27 1015.7 - -
25/02:15am 24.9 - - - - ESE 43 - 23 - - 1015.5 -
25/02:00am 24.5 - - - - ESE 41 48 22 26 1015.8 - -
25/01:30am 24.5 - - - - ESE 43 48 23 26 1016.0 - -
25/01:15am 24.5 - - - - ESE 43 - 23 - - 1015.9 -
25/01:00am 24.6 - - - - ESE 43 48 23 26 1016.4 - -
25/12:30am 24.4 - - - - SE 41 46 22 25 1016.7 - -
25/12:15am 24.5 - - - - SE 44 - 24 - - 1016.6 -
25/12:00am 24.8 - - - - SE 43 50 23 27 1017.0 - -
 
Date/Time
EST
Temp
°C
App
Temp
°C
Dew
Point
Rel
Hum
%
Delta-T
°C
Wind Press
QNH
hPa
Press
MSL
hPa
Rain
since 9 am
mm
Dir
 
Spd
km/h
Gust
km/h
Spd
kts
Gust
kts
24/11:30pm 24.7 - - - - SE 43 48 23 26 1017.4 - -
24/11:15pm 24.6 - - - - ESE 41 - 22 - - 1017.3 -
24/11:00pm 24.6 - - - - ESE 41 46 22 25 1017.8 - -
24/10:30pm 24.7 - - - - ESE 41 46 22 25 1018.1 - -
24/10:15pm 24.7 - - - - SE 43 - 23 - - 1017.8 -
24/10:00pm 24.6 - - - - SE 43 50 23 27 1018.0 - -
24/09:30pm 24.7 - - - - SE 37 46 20 25 1017.9 - -
24/09:15pm 24.6 - - - - SE 37 - 20 - - 1017.4 -
24/09:00pm 24.7 - - - - ESE 39 46 21 25 1017.7 - -
24/08:30pm 24.7 - - - - SE 37 44 20 24 1017.5 - -
24/08:15pm 24.8 - - - - SE 39 - 21 - - 1017.1 -
24/08:00pm 24.7 - - - - SE 39 48 21 26 1017.2 - -
24/07:30pm 24.7 - - - - ESE 37 43 20 23 1017.1 - -
24/07:15pm 24.7 - - - - SE 39 - 21 - - 1016.7 -
24/07:00pm 24.7 - - - - ESE 37 44 20 24 1016.9 - -
24/06:30pm 24.7 - - - - SE 39 43 21 23 1016.6 - -
24/06:15pm 24.7 - - - - SE 37 - 20 - - 1016.2 -
24/06:00pm 24.7 - - - - SE 35 43 19 23 1016.3 - -
24/05:30pm 24.9 - - - - SE 37 44 20 24 1016.1 - -
24/05:15pm 24.8 - - - - SE 37 - 20 - - 1015.6 -
24/05:00pm 24.8 - - - - SE 37 43 20 23 1015.6 - -
24/04:30pm 24.9 - - - - SE 35 41 19 22 1015.4 - -
24/04:15pm 24.9 - - - - SE 35 - 19 - - 1015.0 -
24/04:00pm 24.8 - - - - SE 35 41 19 22 1015.2 - -
24/03:30pm 25.0 - - - - SE 33 35 18 19 1015.4 - -
24/03:15pm 25.0 - - - - SE 33 - 18 - - 1015.1 -
24/03:00pm 24.9 - - - - SE 33 37 18 20 1015.5 - -
24/02:30pm 25.0 - - - - SE 32 39 17 21 1015.6 - -
24/02:15pm 24.8 - - - - SE 33 - 18 - - 1015.3 -
24/02:00pm 24.9 - - - - SE 33 37 18 20 1015.7 - -
24/01:30pm 24.9 - - - - SE 33 39 18 21 1016.0 - -
24/01:15pm 24.8 - - - - ESE 33 - 18 - - 1015.8 -
24/01:00pm 25.0 - - - - SE 33 37 18 20 1016.3 - -
24/12:30pm 24.8 - - - - SE 30 35 16 19 1016.6 - -
24/12:15pm 24.8 - - - - SE 32 - 17 - - 1016.5 -
24/12:00pm 24.9 - - - - SE 33 39 18 21 1017.0 - -
24/11:30am 24.9 - - - - ESE 32 37 17 20 1017.5 - -
24/11:15am 24.9 - - - - ESE 32 - 17 - - 1017.3 -
24/11:00am 24.7 - - - - ESE 33 39 18 21 1017.8 - -
24/10:30am 24.8 - - - - SE 33 37 18 20 1018.0 - -
24/10:15am 24.8 - - - - ESE 33 - 18 - - 1017.7 -
24/10:00am 24.9 - - - - SE 35 41 19 22 1018.1 - -
24/09:30am 24.9 - - - - ESE 32 35 17 19 1018.3 - -
24/09:15am 24.8 - - - - ESE 33 - 18 - - 1018.0 -
24/09:00am 24.9 - - - - ESE 35 43 19 23 1018.3 - -
24/08:30am 24.9 - - - - ESE 37 44 20 24 1018.3 - -
24/08:15am 24.8 - - - - ESE 37 - 20 - - 1017.8 -
24/08:00am 24.9 - - - - ESE 37 41 20 22 1018.1 - -
24/07:30am 25.2 - - - - SE 35 43 19 23 1017.7 - -
24/07:15am 24.8 - - - - SE 35 - 19 - - 1017.3 -
24/07:00am 24.7 - - - - SE 39 44 21 24 1017.5 - -
24/06:30am 24.7 - - - - SE 37 44 20 24 1017.1 - -
24/06:15am 24.5 - - - - SE 39 - 21 - - 1016.6 -
24/06:00am 24.5 - - - - ESE 37 46 20 25 1016.8 - -
24/05:30am 24.4 - - - - ESE 37 43 20 23 1016.5 - -
24/05:15am 24.3 - - - - ESE 39 - 21 - - 1015.9 -
24/05:00am 24.4 - - - - ESE 37 44 20 24 1016.0 - -
24/04:30am 24.3 - - - - ESE 37 44 20 24 1015.8 - -
24/04:15am 24.3 - - - - ESE 39 - 21 - - 1015.5 -
24/04:00am 24.2 - - - - ESE 35 44 19 24 1015.8 - -
24/03:30am 24.3 - - - - ESE 35 41 19 22 1015.5 - -
24/03:15am 24.2 - - - - ESE 35 - 19 - - 1015.2 -
24/03:00am 24.5 - - - - ESE 37 44 20 24 1015.6 - -
24/02:30am 24.3 - - - - ESE 39 44 21 24 1015.9 - -
24/02:15am 24.4 - - - - ESE 35 - 19 - - 1015.7 -
24/02:00am 24.4 - - - - ESE 39 43 21 23 1016.1 - -
24/01:30am 24.6 - - - - ESE 37 43 20 23 1016.3 - -
24/01:15am 24.4 - - - - ESE 35 - 19 - - 1016.2 -
24/01:00am 24.6 - - - - ESE 37 43 20 23 1016.6 - -
24/12:30am 24.4 - - - - ESE 37 43 20 23 1017.0 - -
24/12:15am 24.5 - - - - E 37 - 20 - - 1016.9 -
24/12:00am 24.5 - - - - ESE 35 43 19 23 1017.4 - -
 
Date/Time
EST
Temp
°C
App
Temp
°C
Dew
Point
Rel
Hum
%
Delta-T
°C
Wind Press
QNH
hPa
Press
MSL
hPa
Rain
since 9 am
mm
Dir
 
Spd
km/h
Gust
km/h
Spd
kts
Gust
kts
23/11:30pm 24.6 - - - - E 37 43 20 23 1017.6 - -
23/11:15pm 24.4 - - - - E 37 - 20 - - 1017.5 -
23/11:00pm 24.5 - - - - ESE 35 41 19 22 1017.9 - -
23/10:30pm 24.8 - - - - ESE 37 43 20 23 1018.0 - -
23/10:15pm 24.1 - - - - ESE 35 - 19 - - 1017.7 -
23/09:30pm 24.3 - - - - ESE 35 41 19 22 1018.0 - -
23/09:15pm 24.4 - - - - ESE 35 - 19 - - 1017.6 -
23/09:00pm 24.5 - - - - ESE 35 39 19 21 1017.8 - -
23/08:00pm 24.5 - - - - SE 35 41 19 22 1017.0 - -
23/07:30pm 24.4 - - - - SE 35 43 19 23 1016.7 - -
23/07:15pm 24.4 - - - - ESE 39 - 21 - - 1016.2 -
23/07:00pm 24.3 - - - - SE 39 44 21 24 1016.3 - -
23/06:15pm 24.5 - - - - SE 35 - 19 - - 1015.6 -
23/06:00pm 24.2 - - - - SE 35 41 19 22 1015.8 - -
23/05:30pm 24.6 - - - - SE 35 41 19 22 1015.4 - -
23/05:15pm 24.4 - - - - SE 35 - 19 - - 1015.1 -
23/05:00pm 24.6 - - - - SE 37 44 20 24 1015.2 - -
23/04:30pm 24.7 - - - - SE 35 41 19 22 1014.9 - -
23/04:15pm 24.5 - - - - SE 37 - 20 - - 1014.4 -
23/04:00pm 24.5 - - - - SE 39 44 21 24 1014.6 - -
23/03:30pm 24.4 - - - - SE 39 44 21 24 1014.4 - -
23/03:15pm 24.9 - - - - SE 35 - 19 - - 1014.2 -
23/03:00pm 24.8 - - - - SE 37 46 20 25 1014.6 - -
23/02:30pm 24.8 - - - - SE 35 41 19 22 1014.6 - -
23/02:15pm 24.8 - - - - SE 37 - 20 - - 1014.3 -
23/02:00pm 24.8 - - - - SE 35 41 19 22 1014.8 - -
23/01:30pm 24.9 - - - - SE 35 43 19 23 1015.1 - -
23/01:15pm 24.8 - - - - SE 37 - 20 - - 1014.9 -
23/01:00pm 24.7 - - - - SE 39 43 21 23 1015.4 - -
23/12:30pm 24.8 - - - - SE 39 43 21 23 1015.8 - -
23/12:15pm 25.0 - - - - SE 37 - 20 - - 1015.8 -
23/12:00pm 24.9 - - - - SE 37 43 20 23 1016.4 - -
23/11:30am 24.9 - - - - SE 37 43 20 23 1016.6 - -
23/11:15am 24.7 - - - - SE 35 - 19 - - 1016.4 -
23/10:30am 24.8 - - - - SE 35 41 19 22 1017.0 - -
23/10:15am 24.7 - - - - ESE 39 - 21 - - 1016.8 -
23/10:00am 24.8 - - - - ESE 35 43 19 23 1017.1 - -
23/09:30am 24.9 - - - - ESE 39 44 21 24 1017.3 - -
23/09:15am 24.7 - - - - ESE 35 - 19 - - 1017.0 -
23/09:00am 24.7 - - - - ESE 35 41 19 22 1017.3 - -
23/08:30am 24.6 - - - - ESE 35 41 19 22 1017.4 - -
23/08:15am 24.8 - - - - ESE 33 - 18 - - 1017.1 -
23/08:00am 24.6 - - - - ESE 32 37 17 20 1017.3 - -
23/07:30am 24.5 - - - - ESE 32 39 17 21 1017.2 - -
23/07:15am 24.5 - - - - SE 32 - 17 - - 1016.7 -
23/07:00am 24.4 - - - - ESE 32 35 17 19 1016.9 - -
23/06:30am 24.4 - - - - SE 32 41 17 22 1016.7 - -
23/06:15am 24.1 - - - - ESE 33 - 18 - - 1016.2 -
23/06:00am 24.2 - - - - SE 37 43 20 23 1016.4 - -
23/05:30am 24.2 - - - - ESE 32 39 17 21 1016.3 - -
23/05:15am 24.3 - - - - ESE 33 - 18 - - 1015.9 -
23/05:00am 24.0 - - - - ESE 33 39 18 21 1016.0 - -
23/04:30am 24.1 - - - - SE 33 39 18 21 1015.7 - -
23/04:15am 24.1 - - - - ESE 33 - 18 - - 1015.4 -
23/04:00am 24.0 - - - - ESE 32 39 17 21 1015.5 - -
23/03:30am 24.2 - - - - ESE 33 39 18 21 1015.4 - -
23/03:15am 24.1 - - - - ESE 33 - 18 - - 1015.0 -
23/03:00am 24.0 - - - - ESE 33 39 18 21 1015.3 - -
23/02:30am 24.1 - - - - ESE 33 37 18 20 1015.5 - -
23/02:15am 24.0 - - - - ESE 32 - 17 - - 1015.3 -
23/02:00am 24.0 - - - - ESE 33 39 18 21 1015.8 - -
23/01:30am 24.3 - - - - ESE 35 43 19 23 1016.2 - -
23/01:15am 24.2 - - - - ESE 35 - 19 - - 1016.1 -
23/01:00am 24.1 - - - - ESE 35 41 19 22 1016.6 - -
23/12:30am 24.3 - - - - ESE 35 41 19 22 1017.1 - -
23/12:15am 24.4 - - - - ESE 39 - 21 - - 1017.0 -
23/12:00am 24.5 - - - - ESE 37 46 20 25 1017.6 - -
 
Date/Time
EST
Temp
°C
App
Temp
°C
Dew
Point
Rel
Hum
%
Delta-T
°C
Wind Press
QNH
hPa
Press
MSL
hPa
Rain
since 9 am
mm
Dir
 
Spd
km/h
Gust
km/h
Spd
kts
Gust
kts
22/11:30pm 24.7 - - - - ESE 39 44 21 24 1017.9 - -
22/11:15pm 24.6 - - - - ESE 41 - 22 - - 1017.8 -
22/11:00pm 24.7 - - - - ESE 41 46 22 25 1018.3 - -
22/10:30pm 24.7 - - - - ESE 41 48 22 26 1018.5 - -
22/10:15pm 24.7 - - - - ESE 39 - 21 - - 1018.3 -
22/10:00pm 24.7 - - - - ESE 39 46 21 25 1018.6 - -
22/09:30pm 24.6 - - - - ESE 37 44 20 24 1018.6 - -
22/09:15pm 24.9 - - - - ESE 37 - 20 - - 1018.1 -
22/09:00pm 24.7 - - - - ESE 37 44 20 24 1018.3 - -
22/08:30pm 24.6 - - - - ESE 37 41 20 22 1017.9 - -
22/08:15pm 24.4 - - - - ESE 35 - 19 - - 1017.5 -
22/08:00pm 24.9 - - - - ESE 37 44 20 24 1017.5 - -
22/07:15pm 24.7 - - - - SE 39 - 21 - - 1016.7 -
22/07:00pm 24.6 - - - - ESE 39 46 21 25 1016.9 - -
22/06:30pm 24.7 - - - - ESE 41 46 22 25 1016.8 - -
22/06:15pm 24.6 - - - - ESE 41 - 22 - - 1016.4 -
22/06:00pm 24.6 - - - - ESE 39 46 21 25 1016.6 - -
22/05:30pm 24.8 - - - - ESE 41 46 22 25 1016.3 - -
22/05:15pm 24.6 - - - - SE 41 - 22 - - 1015.7 -
22/05:00pm 24.7 - - - - ESE 37 43 20 23 1015.9 - -
22/04:30pm 24.7 - - - - SE 39 46 21 25 1015.6 - -
22/04:15pm 24.7 - - - - SE 39 - 21 - - 1015.2 -
22/04:00pm 24.7 - - - - SE 37 44 20 24 1015.4 - -
22/03:30pm 24.8 - - - - SE 39 46 21 25 1015.5 - -
22/03:15pm 24.9 - - - - SE 39 - 21 - - 1015.3 -
22/03:00pm 24.9 - - - - SE 35 41 19 22 1015.7 - -
22/02:30pm 24.8 - - - - SE 37 43 20 23 1015.8 - -
22/02:15pm 24.7 - - - - SE 37 - 20 - - 1015.5 -
22/02:00pm 24.8 - - - - SE 37 43 20 23 1015.9 - -
22/01:30pm 24.7 - - - - SE 37 43 20 23 1016.2 - -
22/01:15pm 24.8 - - - - SE 35 - 19 - - 1016.0 -

Other Formats:

Comma delimited format used in spreadsheet applications
http://www.bom.gov.au/fwo/IDQ60801/IDQ60801.94289.axf

JavaScript Object Notation format (JSON) in row-major order
http://www.bom.gov.au/fwo/IDQ60801/IDQ60801.94289.json